sensor_id;sensor_type;location;lat;lon;timestamp;P1;durP1;ratioP1;P2;durP2;ratioP2
54452;SDS011;40363;52.270;10.546;2022-10-26T00:00:27;9.63;;;4.03;;
54452;SDS011;40363;52.270;10.546;2022-10-26T00:03:02;7.55;;;4.05;;
54452;SDS011;40363;52.270;10.546;2022-10-26T00:05:39;8.27;;;4.20;;
54452;SDS011;40363;52.270;10.546;2022-10-26T00:08:08;5.05;;;3.10;;
54452;SDS011;40363;52.270;10.546;2022-10-26T00:10:48;6.38;;;3.50;;
54452;SDS011;40363;52.270;10.546;2022-10-26T00:13:19;7.30;;;3.75;;
54452;SDS011;40363;52.270;10.546;2022-10-26T00:15:51;6.38;;;3.75;;
54452;SDS011;40363;52.270;10.546;2022-10-26T00:18:31;10.13;;;4.50;;
54452;SDS011;40363;52.270;10.546;2022-10-26T00:21:08;14.88;;;3.65;;
54452;SDS011;40363;52.270;10.546;2022-10-26T00:23:44;6.03;;;3.03;;
54452;SDS011;40363;52.270;10.546;2022-10-26T00:26:13;6.85;;;3.20;;
54452;SDS011;40363;52.270;10.546;2022-10-26T00:28:53;6.80;;;3.38;;
54452;SDS011;40363;52.270;10.546;2022-10-26T00:31:25;7.00;;;3.63;;
54452;SDS011;40363;52.270;10.546;2022-10-26T00:34:00;5.63;;;3.05;;
54452;SDS011;40363;52.270;10.546;2022-10-26T00:36:40;10.93;;;3.70;;
54452;SDS011;40363;52.270;10.546;2022-10-26T00:39:24;6.70;;;3.55;;
54452;SDS011;40363;52.270;10.546;2022-10-26T00:42:26;9.80;;;3.30;;
54452;SDS011;40363;52.270;10.546;2022-10-26T00:44:56;8.15;;;3.75;;
54452;SDS011;40363;52.270;10.546;2022-10-26T00:47:40;5.72;;;3.47;;
54452;SDS011;40363;52.270;10.546;2022-10-26T00:50:31;13.43;;;4.00;;
54452;SDS011;40363;52.270;10.546;2022-10-26T00:53:04;5.95;;;3.13;;
54452;SDS011;40363;52.270;10.546;2022-10-26T00:55:38;6.40;;;3.53;;
54452;SDS011;40363;52.270;10.546;2022-10-26T00:58:22;13.95;;;3.92;;
54452;SDS011;40363;52.270;10.546;2022-10-26T01:00:58;4.88;;;3.00;;
54452;SDS011;40363;52.270;10.546;2022-10-26T01:03:30;8.35;;;3.22;;
54452;SDS011;40363;52.270;10.546;2022-10-26T01:06:13;11.90;;;3.88;;
54452;SDS011;40363;52.270;10.546;2022-10-26T01:08:54;6.35;;;3.75;;
54452;SDS011;40363;52.270;10.546;2022-10-26T01:11:24;5.45;;;3.03;;
54452;SDS011;40363;52.270;10.546;2022-10-26T01:14:01;8.13;;;3.50;;
54452;SDS011;40363;52.270;10.546;2022-10-26T01:16:47;14.20;;;3.72;;
54452;SDS011;40363;52.270;10.546;2022-10-26T01:23:17;4.65;;;3.20;;
54452;SDS011;40363;52.270;10.546;2022-10-26T01:29:24;8.02;;;3.60;;
54452;SDS011;40363;52.270;10.546;2022-10-26T01:32:26;6.22;;;3.25;;
54452;SDS011;40363;52.270;10.546;2022-10-26T01:35:27;12.10;;;3.28;;
54452;SDS011;40363;52.270;10.546;2022-10-26T01:38:25;11.13;;;2.90;;
54452;SDS011;40363;52.270;10.546;2022-10-26T01:41:16;5.45;;;3.47;;
54452;SDS011;40363;52.270;10.546;2022-10-26T01:46:46;4.95;;;2.58;;
54452;SDS011;40363;52.270;10.546;2022-10-26T01:52:23;8.50;;;3.30;;
54452;SDS011;40363;52.270;10.546;2022-10-26T01:55:05;20.23;;;3.25;;
54452;SDS011;40363;52.270;10.546;2022-10-26T01:57:55;5.85;;;3.03;;
54452;SDS011;40363;52.270;10.546;2022-10-26T02:00:52;8.23;;;4.20;;
54452;SDS011;40363;52.270;10.546;2022-10-26T02:03:29;9.57;;;3.50;;
54452;SDS011;40363;52.270;10.546;2022-10-26T02:06:28;6.43;;;3.50;;
54452;SDS011;40363;52.270;10.546;2022-10-26T02:09:07;12.45;;;3.28;;
54452;SDS011;40363;52.270;10.546;2022-10-26T02:11:44;4.68;;;2.92;;
54452;SDS011;40363;52.270;10.546;2022-10-26T02:14:17;7.60;;;2.58;;
54452;SDS011;40363;52.270;10.546;2022-10-26T02:16:53;5.28;;;3.08;;
54452;SDS011;40363;52.270;10.546;2022-10-26T02:19:32;5.55;;;2.50;;
54452;SDS011;40363;52.270;10.546;2022-10-26T02:22:05;6.88;;;2.83;;
54452;SDS011;40363;52.270;10.546;2022-10-26T02:24:43;3.63;;;2.53;;
54452;SDS011;40363;52.270;10.546;2022-10-26T02:27:19;11.23;;;3.30;;
54452;SDS011;40363;52.270;10.546;2022-10-26T02:29:54;9.68;;;3.40;;
54452;SDS011;40363;52.270;10.546;2022-10-26T02:32:27;12.63;;;2.65;;
54452;SDS011;40363;52.270;10.546;2022-10-26T02:35:28;3.00;;;2.70;;
54452;SDS011;40363;52.270;10.546;2022-10-26T02:38:01;8.38;;;2.83;;
54452;SDS011;40363;52.270;10.546;2022-10-26T02:40:37;5.35;;;2.22;;
54452;SDS011;40363;52.270;10.546;2022-10-26T02:43:29;4.90;;;2.00;;
54452;SDS011;40363;52.270;10.546;2022-10-26T02:46:11;6.25;;;2.67;;
54452;SDS011;40363;52.270;10.546;2022-10-26T02:48:46;7.35;;;2.72;;
54452;SDS011;40363;52.270;10.546;2022-10-26T02:51:16;7.35;;;2.63;;
54452;SDS011;40363;52.270;10.546;2022-10-26T02:53:50;6.50;;;1.95;;
54452;SDS011;40363;52.270;10.546;2022-10-26T02:56:27;5.70;;;2.55;;
54452;SDS011;40363;52.270;10.546;2022-10-26T02:59:03;7.65;;;2.40;;
54452;SDS011;40363;52.270;10.546;2022-10-26T03:01:34;9.68;;;3.13;;
54452;SDS011;40363;52.270;10.546;2022-10-26T03:04:04;5.55;;;2.55;;
54452;SDS011;40363;52.270;10.546;2022-10-26T03:06:31;4.57;;;2.28;;
54452;SDS011;40363;52.270;10.546;2022-10-26T03:08:59;4.95;;;2.47;;
54452;SDS011;40363;52.270;10.546;2022-10-26T03:11:26;3.33;;;2.28;;
54452;SDS011;40363;52.270;10.546;2022-10-26T03:13:52;9.52;;;2.83;;
54452;SDS011;40363;52.270;10.546;2022-10-26T03:16:19;4.85;;;2.38;;
54452;SDS011;40363;52.270;10.546;2022-10-26T03:18:45;3.67;;;1.90;;
54452;SDS011;40363;52.270;10.546;2022-10-26T03:21:12;4.95;;;1.90;;
54452;SDS011;40363;52.270;10.546;2022-10-26T03:23:39;3.67;;;2.55;;
54452;SDS011;40363;52.270;10.546;2022-10-26T03:26:07;6.32;;;2.50;;
54452;SDS011;40363;52.270;10.546;2022-10-26T03:28:33;3.78;;;1.98;;
54452;SDS011;40363;52.270;10.546;2022-10-26T03:31:00;3.00;;;1.73;;
54452;SDS011;40363;52.270;10.546;2022-10-26T03:33:27;5.05;;;2.65;;
54452;SDS011;40363;52.270;10.546;2022-10-26T03:35:53;3.63;;;1.88;;
54452;SDS011;40363;52.270;10.546;2022-10-26T03:38:21;3.75;;;2.05;;
54452;SDS011;40363;52.270;10.546;2022-10-26T03:40:48;5.47;;;2.40;;
54452;SDS011;40363;52.270;10.546;2022-10-26T03:43:16;6.13;;;2.22;;
54452;SDS011;40363;52.270;10.546;2022-10-26T03:45:44;3.97;;;2.10;;
54452;SDS011;40363;52.270;10.546;2022-10-26T03:48:11;9.25;;;1.95;;
54452;SDS011;40363;52.270;10.546;2022-10-26T03:50:38;12.02;;;2.55;;
54452;SDS011;40363;52.270;10.546;2022-10-26T03:53:04;8.27;;;2.58;;
54452;SDS011;40363;52.270;10.546;2022-10-26T03:55:31;4.40;;;2.22;;
54452;SDS011;40363;52.270;10.546;2022-10-26T03:57:58;4.43;;;2.30;;
54452;SDS011;40363;52.270;10.546;2022-10-26T04:00:26;2.65;;;1.92;;
54452;SDS011;40363;52.270;10.546;2022-10-26T04:02:53;4.57;;;2.15;;
54452;SDS011;40363;52.270;10.546;2022-10-26T04:05:21;5.78;;;2.40;;
54452;SDS011;40363;52.270;10.546;2022-10-26T04:07:50;6.18;;;2.30;;
54452;SDS011;40363;52.270;10.546;2022-10-26T04:10:18;3.10;;;2.08;;
54452;SDS011;40363;52.270;10.546;2022-10-26T04:12:44;8.52;;;2.28;;
54452;SDS011;40363;52.270;10.546;2022-10-26T04:15:11;6.32;;;2.92;;
54452;SDS011;40363;52.270;10.546;2022-10-26T04:17:39;4.00;;;2.15;;
54452;SDS011;40363;52.270;10.546;2022-10-26T04:20:06;8.18;;;2.08;;
54452;SDS011;40363;52.270;10.546;2022-10-26T04:22:34;4.30;;;2.00;;
54452;SDS011;40363;52.270;10.546;2022-10-26T04:25:00;4.47;;;2.40;;
54452;SDS011;40363;52.270;10.546;2022-10-26T04:27:27;3.60;;;2.38;;
54452;SDS011;40363;52.270;10.546;2022-10-26T04:29:53;6.78;;;2.45;;
54452;SDS011;40363;52.270;10.546;2022-10-26T04:32:20;6.18;;;2.42;;
54452;SDS011;40363;52.270;10.546;2022-10-26T04:34:48;7.32;;;2.10;;
54452;SDS011;40363;52.270;10.546;2022-10-26T04:37:15;9.50;;;2.67;;
54452;SDS011;40363;52.270;10.546;2022-10-26T04:39:41;4.60;;;2.20;;
54452;SDS011;40363;52.270;10.546;2022-10-26T04:42:08;5.43;;;2.55;;
54452;SDS011;40363;52.270;10.546;2022-10-26T04:44:34;2.85;;;2.22;;
54452;SDS011;40363;52.270;10.546;2022-10-26T04:47:01;9.27;;;2.63;;
54452;SDS011;40363;52.270;10.546;2022-10-26T04:49:28;8.90;;;3.08;;
54452;SDS011;40363;52.270;10.546;2022-10-26T04:51:56;5.20;;;2.63;;
54452;SDS011;40363;52.270;10.546;2022-10-26T04:54:22;4.70;;;2.42;;
54452;SDS011;40363;52.270;10.546;2022-10-26T04:56:49;7.43;;;3.08;;
54452;SDS011;40363;52.270;10.546;2022-10-26T04:59:16;4.28;;;2.47;;
54452;SDS011;40363;52.270;10.546;2022-10-26T05:01:43;6.78;;;2.55;;
54452;SDS011;40363;52.270;10.546;2022-10-26T05:04:09;4.82;;;2.65;;
54452;SDS011;40363;52.270;10.546;2022-10-26T05:06:36;5.15;;;2.35;;
54452;SDS011;40363;52.270;10.546;2022-10-26T05:09:04;5.28;;;2.28;;
54452;SDS011;40363;52.270;10.546;2022-10-26T05:11:31;4.82;;;1.80;;
54452;SDS011;40363;52.270;10.546;2022-10-26T05:13:57;3.97;;;2.42;;
54452;SDS011;40363;52.270;10.546;2022-10-26T05:16:24;3.88;;;2.15;;
54452;SDS011;40363;52.270;10.546;2022-10-26T05:18:51;6.57;;;2.58;;
54452;SDS011;40363;52.270;10.546;2022-10-26T05:21:17;7.13;;;2.55;;
54452;SDS011;40363;52.270;10.546;2022-10-26T05:23:47;5.30;;;2.20;;
54452;SDS011;40363;52.270;10.546;2022-10-26T05:26:16;4.40;;;2.22;;
54452;SDS011;40363;52.270;10.546;2022-10-26T05:28:43;5.35;;;2.80;;
54452;SDS011;40363;52.270;10.546;2022-10-26T05:31:10;4.95;;;2.63;;
54452;SDS011;40363;52.270;10.546;2022-10-26T05:33:36;7.93;;;2.42;;
54452;SDS011;40363;52.270;10.546;2022-10-26T05:36:03;7.25;;;2.75;;
54452;SDS011;40363;52.270;10.546;2022-10-26T05:38:30;8.50;;;3.15;;
54452;SDS011;40363;52.270;10.546;2022-10-26T05:40:57;8.85;;;2.65;;
54452;SDS011;40363;52.270;10.546;2022-10-26T05:43:26;4.22;;;2.97;;
54452;SDS011;40363;52.270;10.546;2022-10-26T05:45:53;6.03;;;2.67;;
54452;SDS011;40363;52.270;10.546;2022-10-26T05:48:20;6.30;;;3.17;;
54452;SDS011;40363;52.270;10.546;2022-10-26T05:50:46;8.18;;;2.80;;
54452;SDS011;40363;52.270;10.546;2022-10-26T05:53:13;7.18;;;3.15;;
54452;SDS011;40363;52.270;10.546;2022-10-26T05:55:40;8.65;;;3.00;;
54452;SDS011;40363;52.270;10.546;2022-10-26T05:58:08;7.80;;;3.00;;
54452;SDS011;40363;52.270;10.546;2022-10-26T06:00:39;5.60;;;2.42;;
54452;SDS011;40363;52.270;10.546;2022-10-26T06:03:15;7.07;;;3.08;;
54452;SDS011;40363;52.270;10.546;2022-10-26T06:05:54;5.00;;;2.25;;
54452;SDS011;40363;52.270;10.546;2022-10-26T06:08:23;4.50;;;3.03;;
54452;SDS011;40363;52.270;10.546;2022-10-26T06:10:51;7.40;;;3.22;;
54452;SDS011;40363;52.270;10.546;2022-10-26T06:13:19;6.00;;;2.75;;
54452;SDS011;40363;52.270;10.546;2022-10-26T06:15:50;7.10;;;2.65;;
54452;SDS011;40363;52.270;10.546;2022-10-26T06:18:28;7.60;;;3.03;;
54452;SDS011;40363;52.270;10.546;2022-10-26T06:21:08;6.13;;;2.30;;
54452;SDS011;40363;52.270;10.546;2022-10-26T06:23:51;4.65;;;3.10;;
54452;SDS011;40363;52.270;10.546;2022-10-26T06:26:29;9.20;;;3.28;;
54452;SDS011;40363;52.270;10.546;2022-10-26T06:29:08;5.65;;;2.63;;
54452;SDS011;40363;52.270;10.546;2022-10-26T06:31:48;11.35;;;3.40;;
54452;SDS011;40363;52.270;10.546;2022-10-26T06:34:17;7.68;;;2.95;;
54452;SDS011;40363;52.270;10.546;2022-10-26T06:36:48;7.10;;;2.63;;
54452;SDS011;40363;52.270;10.546;2022-10-26T06:39:15;6.30;;;3.28;;
54452;SDS011;40363;52.270;10.546;2022-10-26T06:41:45;7.60;;;3.38;;
54452;SDS011;40363;52.270;10.546;2022-10-26T06:44:14;5.72;;;3.15;;
54452;SDS011;40363;52.270;10.546;2022-10-26T06:46:47;8.45;;;2.70;;
54452;SDS011;40363;52.270;10.546;2022-10-26T06:49:20;4.82;;;2.78;;
54452;SDS011;40363;52.270;10.546;2022-10-26T06:51:54;5.88;;;2.55;;
54452;SDS011;40363;52.270;10.546;2022-10-26T06:54:24;7.28;;;3.60;;
54452;SDS011;40363;52.270;10.546;2022-10-26T06:56:58;4.13;;;2.60;;
54452;SDS011;40363;52.270;10.546;2022-10-26T06:59:29;5.25;;;3.60;;
54452;SDS011;40363;52.270;10.546;2022-10-26T07:02:01;7.03;;;3.30;;
54452;SDS011;40363;52.270;10.546;2022-10-26T07:04:28;6.82;;;2.75;;
54452;SDS011;40363;52.270;10.546;2022-10-26T07:06:55;6.78;;;2.80;;
54452;SDS011;40363;52.270;10.546;2022-10-26T07:09:22;4.57;;;2.10;;
54452;SDS011;40363;52.270;10.546;2022-10-26T07:11:49;8.75;;;2.90;;
54452;SDS011;40363;52.270;10.546;2022-10-26T07:14:15;4.75;;;2.33;;
54452;SDS011;40363;52.270;10.546;2022-10-26T07:16:42;3.22;;;1.98;;
54452;SDS011;40363;52.270;10.546;2022-10-26T07:19:10;3.60;;;1.88;;
54452;SDS011;40363;52.270;10.546;2022-10-26T07:21:37;5.63;;;1.95;;
54452;SDS011;40363;52.270;10.546;2022-10-26T07:24:03;4.40;;;2.40;;
54452;SDS011;40363;52.270;10.546;2022-10-26T07:26:30;5.07;;;1.88;;
54452;SDS011;40363;52.270;10.546;2022-10-26T07:28:57;4.85;;;1.88;;
54452;SDS011;40363;52.270;10.546;2022-10-26T07:31:23;3.00;;;1.73;;
54452;SDS011;40363;52.270;10.546;2022-10-26T07:33:52;4.13;;;1.92;;
54452;SDS011;40363;52.270;10.546;2022-10-26T07:36:20;3.53;;;2.13;;
54452;SDS011;40363;52.270;10.546;2022-10-26T07:38:49;2.30;;;1.58;;
54452;SDS011;40363;52.270;10.546;2022-10-26T07:41:16;4.28;;;1.85;;
54452;SDS011;40363;52.270;10.546;2022-10-26T07:43:43;5.57;;;1.60;;
54452;SDS011;40363;52.270;10.546;2022-10-26T07:46:10;4.47;;;1.92;;
54452;SDS011;40363;52.270;10.546;2022-10-26T07:48:36;3.90;;;1.70;;
54452;SDS011;40363;52.270;10.546;2022-10-26T07:51:03;4.10;;;2.33;;
54452;SDS011;40363;52.270;10.546;2022-10-26T07:53:31;5.97;;;2.88;;
54452;SDS011;40363;52.270;10.546;2022-10-26T07:55:58;4.05;;;2.33;;
54452;SDS011;40363;52.270;10.546;2022-10-26T07:58:24;4.55;;;1.63;;
54452;SDS011;40363;52.270;10.546;2022-10-26T08:00:52;4.97;;;1.65;;
54452;SDS011;40363;52.270;10.546;2022-10-26T08:03:20;5.68;;;2.05;;
54452;SDS011;40363;52.270;10.546;2022-10-26T08:05:47;7.13;;;1.70;;
54452;SDS011;40363;52.270;10.546;2022-10-26T08:08:15;5.05;;;1.80;;
54452;SDS011;40363;52.270;10.546;2022-10-26T08:10:43;4.07;;;1.45;;
54452;SDS011;40363;52.270;10.546;2022-10-26T08:13:10;2.45;;;1.77;;
54452;SDS011;40363;52.270;10.546;2022-10-26T08:15:37;5.38;;;1.83;;
54452;SDS011;40363;52.270;10.546;2022-10-26T08:18:04;5.82;;;1.58;;
54452;SDS011;40363;52.270;10.546;2022-10-26T08:20:31;3.78;;;1.10;;
54452;SDS011;40363;52.270;10.546;2022-10-26T08:22:58;3.13;;;1.52;;
54452;SDS011;40363;52.270;10.546;2022-10-26T08:25:26;3.28;;;1.48;;
54452;SDS011;40363;52.270;10.546;2022-10-26T08:27:54;2.97;;;1.60;;
54452;SDS011;40363;52.270;10.546;2022-10-26T08:33:20;3.83;;;1.30;;
54452;SDS011;40363;52.270;10.546;2022-10-26T08:35:47;3.67;;;1.30;;
54452;SDS011;40363;52.270;10.546;2022-10-26T08:38:14;2.60;;;1.33;;
54452;SDS011;40363;52.270;10.546;2022-10-26T08:40:41;4.20;;;1.25;;
54452;SDS011;40363;52.270;10.546;2022-10-26T08:43:11;2.42;;;1.23;;
54452;SDS011;40363;52.270;10.546;2022-10-26T08:45:43;3.72;;;1.38;;
54452;SDS011;40363;52.270;10.546;2022-10-26T08:48:14;6.10;;;1.63;;
54452;SDS011;40363;52.270;10.546;2022-10-26T08:50:45;3.72;;;1.30;;
54452;SDS011;40363;52.270;10.546;2022-10-26T08:53:17;3.03;;;1.40;;
54452;SDS011;40363;52.270;10.546;2022-10-26T08:55:49;2.75;;;1.20;;
54452;SDS011;40363;52.270;10.546;2022-10-26T08:58:20;4.35;;;1.55;;
54452;SDS011;40363;52.270;10.546;2022-10-26T09:00:50;6.80;;;2.03;;
54452;SDS011;40363;52.270;10.546;2022-10-26T09:03:18;2.88;;;1.05;;
54452;SDS011;40363;52.270;10.546;2022-10-26T09:05:47;4.35;;;1.33;;
54452;SDS011;40363;52.270;10.546;2022-10-26T09:08:25;2.42;;;1.40;;
54452;SDS011;40363;52.270;10.546;2022-10-26T09:11:02;5.13;;;1.70;;
54452;SDS011;40363;52.270;10.546;2022-10-26T09:13:41;2.53;;;1.23;;
54452;SDS011;40363;52.270;10.546;2022-10-26T09:16:22;5.50;;;1.48;;
54452;SDS011;40363;52.270;10.546;2022-10-26T09:18:56;3.30;;;1.10;;
54452;SDS011;40363;52.270;10.546;2022-10-26T09:21:37;4.72;;;1.70;;
54452;SDS011;40363;52.270;10.546;2022-10-26T09:24:12;3.72;;;1.50;;
54452;SDS011;40363;52.270;10.546;2022-10-26T09:26:44;3.83;;;1.45;;
54452;SDS011;40363;52.270;10.546;2022-10-26T09:29:22;6.20;;;1.92;;
54452;SDS011;40363;52.270;10.546;2022-10-26T09:31:52;3.40;;;1.70;;
54452;SDS011;40363;52.270;10.546;2022-10-26T09:34:24;2.83;;;1.20;;
54452;SDS011;40363;52.270;10.546;2022-10-26T09:36:54;2.78;;;1.48;;
54452;SDS011;40363;52.270;10.546;2022-10-26T09:39:23;7.93;;;2.85;;
54452;SDS011;40363;52.270;10.546;2022-10-26T09:41:56;5.93;;;1.75;;
54452;SDS011;40363;52.270;10.546;2022-10-26T09:44:29;4.18;;;1.50;;
54452;SDS011;40363;52.270;10.546;2022-10-26T09:47:00;4.40;;;1.55;;
54452;SDS011;40363;52.270;10.546;2022-10-26T09:49:33;4.55;;;1.80;;
54452;SDS011;40363;52.270;10.546;2022-10-26T09:52:05;6.43;;;1.88;;
54452;SDS011;40363;52.270;10.546;2022-10-26T09:54:32;3.90;;;1.38;;
54452;SDS011;40363;52.270;10.546;2022-10-26T09:56:58;5.07;;;1.85;;
54452;SDS011;40363;52.270;10.546;2022-10-26T09:59:26;7.03;;;1.85;;
54452;SDS011;40363;52.270;10.546;2022-10-26T10:01:57;2.90;;;1.60;;
54452;SDS011;40363;52.270;10.546;2022-10-26T10:04:24;4.93;;;1.85;;
54452;SDS011;40363;52.270;10.546;2022-10-26T10:06:51;3.15;;;1.50;;
54452;SDS011;40363;52.270;10.546;2022-10-26T10:09:19;3.95;;;1.60;;
54452;SDS011;40363;52.270;10.546;2022-10-26T10:11:47;4.80;;;1.80;;
54452;SDS011;40363;52.270;10.546;2022-10-26T10:14:21;4.03;;;1.40;;
54452;SDS011;40363;52.270;10.546;2022-10-26T10:16:51;4.70;;;1.52;;
54452;SDS011;40363;52.270;10.546;2022-10-26T10:19:23;3.47;;;2.85;;
54452;SDS011;40363;52.270;10.546;2022-10-26T10:21:53;4.53;;;1.60;;
54452;SDS011;40363;52.270;10.546;2022-10-26T10:24:22;3.78;;;1.90;;
54452;SDS011;40363;52.270;10.546;2022-10-26T10:27:01;4.30;;;1.65;;
54452;SDS011;40363;52.270;10.546;2022-10-26T10:29:30;3.75;;;1.38;;
54452;SDS011;40363;52.270;10.546;2022-10-26T10:31:59;6.03;;;1.65;;
54452;SDS011;40363;52.270;10.546;2022-10-26T10:34:29;4.25;;;1.45;;
54452;SDS011;40363;52.270;10.546;2022-10-26T10:36:56;6.00;;;1.75;;
54452;SDS011;40363;52.270;10.546;2022-10-26T10:39:32;2.35;;;1.08;;
54452;SDS011;40363;52.270;10.546;2022-10-26T10:42:01;3.63;;;1.40;;
54452;SDS011;40363;52.270;10.546;2022-10-26T10:44:28;3.47;;;1.17;;
54452;SDS011;40363;52.270;10.546;2022-10-26T10:47:02;5.90;;;2.08;;
54452;SDS011;40363;52.270;10.546;2022-10-26T10:49:30;5.50;;;1.52;;
54452;SDS011;40363;52.270;10.546;2022-10-26T10:51:58;2.17;;;1.20;;
54452;SDS011;40363;52.270;10.546;2022-10-26T10:54:26;4.28;;;1.63;;
54452;SDS011;40363;52.270;10.546;2022-10-26T10:56:59;5.97;;;1.40;;
54452;SDS011;40363;52.270;10.546;2022-10-26T10:59:51;2.80;;;1.55;;
54452;SDS011;40363;52.270;10.546;2022-10-26T11:02:37;4.32;;;1.50;;
54452;SDS011;40363;52.270;10.546;2022-10-26T11:05:23;5.85;;;2.00;;
54452;SDS011;40363;52.270;10.546;2022-10-26T11:08:01;4.50;;;1.92;;
54452;SDS011;40363;52.270;10.546;2022-10-26T11:10:32;3.00;;;1.45;;
54452;SDS011;40363;52.270;10.546;2022-10-26T11:13:03;2.92;;;1.50;;
54452;SDS011;40363;52.270;10.546;2022-10-26T11:15:36;5.22;;;1.70;;
54452;SDS011;40363;52.270;10.546;2022-10-26T11:18:11;2.33;;;1.67;;
54452;SDS011;40363;52.270;10.546;2022-10-26T11:20:44;4.82;;;1.75;;
54452;SDS011;40363;52.270;10.546;2022-10-26T11:23:16;2.45;;;1.55;;
54452;SDS011;40363;52.270;10.546;2022-10-26T11:25:48;2.72;;;1.17;;
54452;SDS011;40363;52.270;10.546;2022-10-26T11:28:18;2.42;;;1.27;;
54452;SDS011;40363;52.270;10.546;2022-10-26T11:30:58;5.70;;;1.67;;
54452;SDS011;40363;52.270;10.546;2022-10-26T11:33:32;3.67;;;1.50;;
54452;SDS011;40363;52.270;10.546;2022-10-26T11:36:06;1.98;;;1.55;;
54452;SDS011;40363;52.270;10.546;2022-10-26T11:38:37;3.33;;;1.70;;
54452;SDS011;40363;52.270;10.546;2022-10-26T11:41:11;3.10;;;1.40;;
54452;SDS011;40363;52.270;10.546;2022-10-26T11:43:44;5.75;;;1.45;;
54452;SDS011;40363;52.270;10.546;2022-10-26T11:46:12;3.55;;;1.55;;
54452;SDS011;40363;52.270;10.546;2022-10-26T11:48:46;2.65;;;1.50;;
54452;SDS011;40363;52.270;10.546;2022-10-26T11:51:32;7.32;;;1.80;;
54452;SDS011;40363;52.270;10.546;2022-10-26T11:54:06;4.30;;;1.48;;
54452;SDS011;40363;52.270;10.546;2022-10-26T11:56:37;2.53;;;1.52;;
54452;SDS011;40363;52.270;10.546;2022-10-26T11:59:07;6.20;;;2.08;;
54452;SDS011;40363;52.270;10.546;2022-10-26T12:01:44;3.05;;;1.33;;
54452;SDS011;40363;52.270;10.546;2022-10-26T12:04:14;5.80;;;1.77;;
54452;SDS011;40363;52.270;10.546;2022-10-26T12:06:42;2.92;;;1.40;;
54452;SDS011;40363;52.270;10.546;2022-10-26T12:09:11;7.15;;;1.50;;
54452;SDS011;40363;52.270;10.546;2022-10-26T12:11:42;5.20;;;2.10;;
54452;SDS011;40363;52.270;10.546;2022-10-26T12:14:16;3.13;;;1.85;;
54452;SDS011;40363;52.270;10.546;2022-10-26T12:16:48;2.90;;;1.45;;
54452;SDS011;40363;52.270;10.546;2022-10-26T12:19:25;4.28;;;1.25;;
54452;SDS011;40363;52.270;10.546;2022-10-26T12:21:59;4.43;;;1.58;;
54452;SDS011;40363;52.270;10.546;2022-10-26T12:24:27;3.60;;;1.52;;
54452;SDS011;40363;52.270;10.546;2022-10-26T12:26:57;4.93;;;1.70;;
54452;SDS011;40363;52.270;10.546;2022-10-26T12:29:26;3.03;;;1.67;;
54452;SDS011;40363;52.270;10.546;2022-10-26T12:35:32;5.57;;;1.40;;
54452;SDS011;40363;52.270;10.546;2022-10-26T12:41:24;5.00;;;1.45;;
54452;SDS011;40363;52.270;10.546;2022-10-26T12:43:55;4.00;;;1.95;;
54452;SDS011;40363;52.270;10.546;2022-10-26T12:52:28;3.67;;;1.70;;
54452;SDS011;40363;52.270;10.546;2022-10-26T12:58:40;3.72;;;1.58;;
54452;SDS011;40363;52.270;10.546;2022-10-26T13:04:25;4.28;;;1.42;;
54452;SDS011;40363;52.270;10.546;2022-10-26T13:07:18;4.07;;;1.38;;
54452;SDS011;40363;52.270;10.546;2022-10-26T13:09:54;2.53;;;1.50;;
54452;SDS011;40363;52.270;10.546;2022-10-26T13:12:23;4.13;;;1.42;;
54452;SDS011;40363;52.270;10.546;2022-10-26T13:14:54;2.67;;;1.75;;
54452;SDS011;40363;52.270;10.546;2022-10-26T13:17:25;4.32;;;1.33;;
54452;SDS011;40363;52.270;10.546;2022-10-26T13:19:54;5.50;;;1.20;;
54452;SDS011;40363;52.270;10.546;2022-10-26T13:22:22;5.20;;;1.42;;
54452;SDS011;40363;52.270;10.546;2022-10-26T13:24:50;4.78;;;0.88;;
54452;SDS011;40363;52.270;10.546;2022-10-26T13:30:18;3.83;;;1.35;;
54452;SDS011;40363;52.270;10.546;2022-10-26T13:33:12;5.65;;;1.50;;
54452;SDS011;40363;52.270;10.546;2022-10-26T13:35:43;3.30;;;2.10;;
54452;SDS011;40363;52.270;10.546;2022-10-26T13:38:10;3.95;;;1.60;;
54452;SDS011;40363;52.270;10.546;2022-10-26T13:40:41;4.82;;;1.48;;
54452;SDS011;40363;52.270;10.546;2022-10-26T13:43:13;2.42;;;1.08;;
54452;SDS011;40363;52.270;10.546;2022-10-26T13:45:46;2.08;;;1.20;;
54452;SDS011;40363;52.270;10.546;2022-10-26T13:48:19;1.98;;;1.20;;
54452;SDS011;40363;52.270;10.546;2022-10-26T13:50:53;2.67;;;1.25;;
54452;SDS011;40363;52.270;10.546;2022-10-26T13:53:21;3.95;;;1.35;;
54452;SDS011;40363;52.270;10.546;2022-10-26T13:55:53;6.53;;;1.77;;
54452;SDS011;40363;52.270;10.546;2022-10-26T13:58:27;3.40;;;1.50;;
54452;SDS011;40363;52.270;10.546;2022-10-26T14:00:59;6.55;;;1.67;;
54452;SDS011;40363;52.270;10.546;2022-10-26T14:03:30;3.22;;;1.25;;
54452;SDS011;40363;52.270;10.546;2022-10-26T14:05:56;3.22;;;1.42;;
54452;SDS011;40363;52.270;10.546;2022-10-26T14:08:23;4.82;;;1.50;;
54452;SDS011;40363;52.270;10.546;2022-10-26T14:10:51;4.07;;;1.15;;
54452;SDS011;40363;52.270;10.546;2022-10-26T14:13:21;5.30;;;1.58;;
54452;SDS011;40363;52.270;10.546;2022-10-26T14:15:51;4.40;;;1.30;;
54452;SDS011;40363;52.270;10.546;2022-10-26T14:18:21;5.22;;;1.33;;
54452;SDS011;40363;52.270;10.546;2022-10-26T14:20:51;3.75;;;1.27;;
54452;SDS011;40363;52.270;10.546;2022-10-26T14:23:25;2.15;;;1.35;;
54452;SDS011;40363;52.270;10.546;2022-10-26T14:25:53;4.20;;;1.27;;
54452;SDS011;40363;52.270;10.546;2022-10-26T14:28:21;3.10;;;1.52;;
54452;SDS011;40363;52.270;10.546;2022-10-26T14:30:50;4.15;;;1.40;;
54452;SDS011;40363;52.270;10.546;2022-10-26T14:33:18;5.97;;;1.67;;
54452;SDS011;40363;52.270;10.546;2022-10-26T14:35:45;6.05;;;1.50;;
54452;SDS011;40363;52.270;10.546;2022-10-26T14:38:15;4.25;;;1.27;;
54452;SDS011;40363;52.270;10.546;2022-10-26T14:40:44;3.92;;;1.67;;
54452;SDS011;40363;52.270;10.546;2022-10-26T14:43:14;4.72;;;1.40;;
54452;SDS011;40363;52.270;10.546;2022-10-26T14:45:45;3.42;;;1.65;;
54452;SDS011;40363;52.270;10.546;2022-10-26T14:48:19;4.70;;;1.90;;
54452;SDS011;40363;52.270;10.546;2022-10-26T14:50:58;6.63;;;2.00;;
54452;SDS011;40363;52.270;10.546;2022-10-26T14:53:28;7.13;;;2.13;;
54452;SDS011;40363;52.270;10.546;2022-10-26T14:55:59;4.97;;;1.80;;
54452;SDS011;40363;52.270;10.546;2022-10-26T14:58:27;5.78;;;2.22;;
54452;SDS011;40363;52.270;10.546;2022-10-26T15:01:14;5.60;;;1.92;;
54452;SDS011;40363;52.270;10.546;2022-10-26T15:03:43;5.30;;;1.30;;
54452;SDS011;40363;52.270;10.546;2022-10-26T15:11:56;3.28;;;1.45;;
54452;SDS011;40363;52.270;10.546;2022-10-26T15:14:23;6.78;;;1.70;;
54452;SDS011;40363;52.270;10.546;2022-10-26T15:16:50;9.02;;;1.50;;
54452;SDS011;40363;52.270;10.546;2022-10-26T15:19:20;2.97;;;1.27;;
54452;SDS011;40363;52.270;10.546;2022-10-26T15:21:48;5.78;;;1.27;;
54452;SDS011;40363;52.270;10.546;2022-10-26T15:24:26;3.45;;;1.27;;
54452;SDS011;40363;52.270;10.546;2022-10-26T15:26:56;4.53;;;2.28;;
54452;SDS011;40363;52.270;10.546;2022-10-26T15:29:35;2.25;;;1.38;;
54452;SDS011;40363;52.270;10.546;2022-10-26T15:32:04;4.75;;;1.45;;
54452;SDS011;40363;52.270;10.546;2022-10-26T15:34:47;3.03;;;1.30;;
54452;SDS011;40363;52.270;10.546;2022-10-26T15:37:14;3.75;;;1.90;;
54452;SDS011;40363;52.270;10.546;2022-10-26T15:39:41;5.45;;;1.80;;
54452;SDS011;40363;52.270;10.546;2022-10-26T15:42:08;3.35;;;1.42;;
54452;SDS011;40363;52.270;10.546;2022-10-26T15:44:38;3.40;;;1.75;;